createdAt,value
2018-07-24T00:02:56.899Z,6.36
2018-07-24T00:08:51.919Z,6.08
2018-07-24T00:14:46.932Z,6.15
2018-07-24T00:20:41.910Z,6.03
2018-07-24T00:26:36.933Z,7.23
2018-07-24T00:32:31.890Z,6.61
2018-07-24T00:38:26.887Z,6.1
2018-07-24T00:44:21.907Z,6.19
2018-07-24T00:50:16.946Z,6.68
2018-07-24T00:56:11.955Z,6.36
2018-07-24T01:02:06.933Z,6.49
2018-07-24T01:08:01.922Z,6.73
2018-07-24T01:13:57.006Z,6.55
2018-07-24T01:19:51.935Z,6.77
2018-07-24T01:25:46.941Z,7.01
2018-07-24T01:31:41.937Z,7.07
2018-07-24T01:37:36.934Z,7.16
2018-07-24T01:43:31.942Z,7.23
2018-07-24T01:49:26.944Z,7.35
2018-07-24T01:55:21.965Z,7.06
2018-07-24T02:01:17.053Z,7.07
2018-07-24T02:07:12.012Z,6.65
2018-07-24T02:13:06.991Z,7.38
2018-07-24T02:19:01.969Z,7.25
2018-07-24T02:24:56.980Z,7.82
2018-07-24T02:30:52.013Z,6.62
2018-07-24T02:36:47.090Z,7.14
2018-07-24T02:42:42.039Z,7.26
2018-07-24T02:48:37.043Z,6.81
2018-07-24T02:54:32.054Z,7.08
2018-07-24T03:00:27.005Z,6.95
2018-07-24T03:06:22.039Z,6.87
2018-07-24T03:12:17.038Z,7.13
2018-07-24T03:18:12.002Z,6.49
2018-07-24T03:24:07.003Z,6.45
2018-07-24T03:30:02.391Z,6.85
2018-07-24T03:35:57.070Z,6.13
2018-07-24T03:41:52.021Z,6.62
2018-07-24T03:47:47.072Z,6.33
2018-07-24T03:53:42.084Z,7.04
2018-07-24T03:59:37.094Z,6.52
2018-07-24T04:05:32.146Z,6.49
2018-07-24T04:11:27.144Z,6.9
2018-07-24T04:17:22.068Z,6.74
2018-07-24T04:23:17.090Z,6.71
2018-07-24T04:29:12.112Z,6.64
2018-07-24T04:35:07.117Z,6.71
2018-07-24T04:41:02.129Z,7.08
2018-07-24T04:46:57.091Z,7.16
2018-07-24T04:52:52.152Z,7.13
2018-07-24T04:58:47.161Z,6.88
2018-07-24T05:04:42.106Z,6.9
2018-07-24T05:10:37.081Z,6.97
2018-07-24T05:16:32.093Z,6.4
2018-07-24T05:22:27.101Z,6.7
2018-07-24T05:28:22.116Z,7.33
2018-07-24T05:34:17.153Z,8.25
2018-07-24T05:40:12.164Z,12.99
2018-07-24T05:46:07.162Z,27.16
2018-07-24T05:52:02.187Z,16.59
2018-07-24T05:57:57.150Z,9.08
2018-07-24T06:03:52.154Z,8.74
2018-07-24T06:09:47.146Z,9.5
2018-07-24T06:15:42.274Z,8.88
2018-07-24T06:21:37.146Z,8.86
2018-07-24T06:27:32.184Z,8.94
2018-07-24T06:33:27.155Z,9.4
2018-07-24T06:39:22.259Z,8.39
2018-07-24T06:45:17.299Z,8.43
2018-07-24T06:51:12.222Z,8.46
2018-07-24T06:57:07.207Z,8.38
2018-07-24T07:03:02.262Z,8.49
2018-07-24T07:08:57.245Z,8.66
2018-07-24T07:14:52.167Z,8.51
2018-07-24T07:20:47.179Z,7.88
2018-07-24T07:26:42.229Z,7.88
2018-07-24T07:32:37.272Z,8.02
2018-07-24T07:38:32.232Z,7.9
2018-07-24T07:44:27.231Z,8.49
2018-07-24T07:50:22.224Z,8.41
2018-07-24T07:56:17.254Z,9.43
2018-07-24T08:02:12.281Z,8.95
2018-07-24T08:08:07.239Z,8.83
2018-07-24T08:14:02.315Z,8.78
2018-07-24T08:19:57.283Z,8.38
2018-07-24T08:25:52.308Z,8.53
2018-07-24T08:31:47.296Z,8.64
2018-07-24T08:37:42.244Z,9.03
2018-07-24T08:43:37.241Z,7.88
2018-07-24T08:49:32.266Z,8.45
2018-07-24T08:55:27.578Z,7.66
2018-07-24T09:01:22.296Z,7.62
2018-07-24T09:07:17.315Z,7.52
2018-07-24T09:13:12.284Z,7.06
2018-07-24T09:19:07.329Z,7.9
2018-07-24T09:25:02.307Z,7
2018-07-24T09:30:57.303Z,6.63
2018-07-24T09:36:52.394Z,6.54
2018-07-24T09:42:47.321Z,6.4
2018-07-24T09:48:42.371Z,6.48
2018-07-24T09:54:37.420Z,6.39
2018-07-24T10:00:32.389Z,6.64
2018-07-24T10:06:27.319Z,6.5
2018-07-24T10:12:22.337Z,6.53
2018-07-24T10:18:17.346Z,6.63
2018-07-24T10:24:12.355Z,5.79
2018-07-24T10:30:07.421Z,4.9
2018-07-24T10:36:02.408Z,4.77
2018-07-24T10:41:57.391Z,5.07
2018-07-24T10:47:52.401Z,4.88
2018-07-24T10:53:47.427Z,4.63
2018-07-24T10:59:42.374Z,4.99
2018-07-24T11:05:37.398Z,4.39
2018-07-24T11:11:32.366Z,4.78
2018-07-24T11:17:27.437Z,4.96
2018-07-24T11:23:22.428Z,5.15
2018-07-24T11:29:17.429Z,4.45
2018-07-24T11:35:12.434Z,4.32
2018-07-24T11:41:07.537Z,4.85
2018-07-24T11:47:02.418Z,4.11
2018-07-24T11:52:57.429Z,4.36
2018-07-24T11:58:52.507Z,4.83
2018-07-24T12:04:47.510Z,4.13
2018-07-24T12:10:49.828Z,4.18
2018-07-24T12:16:37.448Z,4.46
2018-07-24T12:22:32.471Z,4.01
2018-07-24T12:28:27.484Z,3.94
2018-07-24T12:34:22.486Z,4.14
2018-07-24T12:40:17.526Z,4.72
2018-07-24T12:46:12.500Z,4.68
2018-07-24T12:52:07.481Z,4.13
2018-07-24T12:58:02.685Z,4.41
2018-07-24T13:03:57.499Z,4.5
2018-07-24T13:09:52.661Z,4.58
2018-07-24T13:15:47.508Z,4.1
2018-07-24T13:21:42.533Z,3.92
2018-07-24T13:27:37.577Z,4.37
2018-07-24T13:33:32.584Z,4.13
2018-07-24T13:39:27.594Z,4.25
2018-07-24T13:45:22.531Z,3.68
2018-07-24T13:51:17.582Z,3.85
2018-07-24T13:57:12.558Z,3.58
2018-07-24T14:03:07.550Z,3.8
2018-07-24T14:09:02.641Z,3.34
2018-07-24T14:14:57.578Z,3.05
2018-07-24T14:20:52.621Z,3.08
2018-07-24T14:26:47.597Z,2.84
2018-07-24T14:32:42.643Z,3.09
2018-07-24T14:38:37.657Z,2.45
2018-07-24T14:44:32.655Z,2.61
2018-07-24T14:50:27.590Z,2.83
2018-07-24T14:56:22.588Z,2.67
2018-07-24T15:02:17.681Z,2.86
2018-07-24T15:08:12.597Z,2.61
2018-07-24T15:14:07.630Z,2.76
2018-07-24T15:20:02.664Z,2.61
2018-07-24T15:25:57.615Z,2.48
2018-07-24T15:31:52.671Z,2.49
2018-07-24T15:37:47.630Z,2.27
2018-07-24T15:43:42.650Z,1.88
2018-07-24T15:49:37.670Z,1.89
2018-07-24T15:55:32.713Z,1.82
2018-07-24T16:01:27.676Z,1.88
2018-07-24T16:07:22.687Z,2.14
2018-07-24T16:13:17.683Z,2.31
2018-07-24T16:19:12.694Z,2.1
2018-07-24T16:25:07.703Z,2.18
2018-07-24T16:31:02.692Z,2.03
2018-07-24T16:36:57.717Z,2.53
2018-07-24T16:42:52.712Z,2.14
2018-07-24T16:48:47.709Z,2.57
2018-07-24T16:54:42.720Z,2.29
2018-07-24T17:00:37.713Z,2.84
2018-07-24T17:06:32.780Z,3.08
2018-07-24T17:12:27.719Z,2.74
2018-07-24T17:18:22.741Z,2.92
2018-07-24T17:24:17.772Z,2.7
2018-07-24T17:30:12.729Z,3.24
2018-07-24T17:36:07.761Z,3.43
2018-07-24T17:42:02.785Z,3.55
2018-07-24T17:47:57.795Z,3.85
2018-07-24T17:53:52.833Z,3.63
2018-07-24T17:59:47.797Z,3.83
2018-07-24T18:05:42.769Z,3.86
2018-07-24T18:11:37.814Z,3.46
2018-07-24T18:17:32.803Z,3.64
2018-07-24T18:23:27.813Z,3.81
2018-07-24T18:29:22.802Z,3.44
2018-07-24T18:35:17.798Z,3.32
2018-07-24T18:41:12.854Z,3.36
2018-07-24T18:47:07.804Z,3.79
2018-07-24T18:53:02.874Z,3.59
2018-07-24T18:58:57.916Z,3.59
2018-07-24T19:04:52.929Z,3.52
2018-07-24T19:10:47.851Z,3.63
2018-07-24T19:16:42.894Z,3.31
2018-07-24T19:22:37.904Z,3.81
2018-07-24T19:28:32.941Z,4.03
2018-07-24T19:34:27.917Z,3.54
2018-07-24T19:40:22.909Z,4.39
2018-07-24T19:46:17.909Z,4.27
2018-07-24T19:52:12.917Z,3.43
2018-07-24T19:58:07.925Z,3.34
2018-07-24T20:04:02.949Z,3.89
2018-07-24T20:09:57.869Z,3.63
2018-07-24T20:15:52.906Z,3.76
2018-07-24T20:21:47.937Z,4.16
2018-07-24T20:27:42.909Z,3.92
2018-07-24T20:33:37.933Z,3.59
2018-07-24T20:39:32.902Z,3.72
2018-07-24T20:45:27.910Z,3.56
2018-07-24T20:51:22.989Z,3.53
2018-07-24T20:57:18.049Z,3.74
2018-07-24T21:03:12.985Z,4.51
2018-07-24T21:09:08.019Z,3.97
2018-07-24T21:15:02.922Z,3.63
2018-07-24T21:20:58.029Z,4.36
2018-07-24T21:26:52.942Z,3.09
2018-07-24T21:32:47.986Z,3.41
2018-07-24T21:38:42.953Z,3.38
2018-07-24T21:44:37.982Z,3.8
2018-07-24T21:50:32.977Z,3.09
2018-07-24T21:56:27.995Z,3.24
2018-07-24T22:02:23.088Z,3.25
2018-07-24T22:08:18.006Z,3.77
2018-07-24T22:14:12.984Z,3.59
2018-07-24T22:20:08.149Z,3.29
2018-07-24T22:26:02.982Z,3.77
2018-07-24T22:31:57.998Z,3.6
2018-07-24T22:37:53.048Z,3.7
2018-07-24T22:43:48.024Z,3.99
2018-07-24T22:49:43.020Z,3.64
2018-07-24T22:55:38.053Z,3.49
2018-07-24T23:01:33.019Z,4.25
2018-07-24T23:07:28.055Z,4.29
2018-07-24T23:13:23.096Z,3.72
2018-07-24T23:19:18.052Z,3.87
2018-07-24T23:25:13.065Z,3.62
2018-07-24T23:31:08.092Z,4.37
2018-07-24T23:37:03.030Z,4.15
2018-07-24T23:42:58.086Z,3.69
2018-07-24T23:48:53.089Z,3.8
2018-07-24T23:54:48.081Z,4.07
